createdAt,value
2022-11-15T04:02:25.185Z,11.00
2022-11-15T04:04:52.349Z,11.83
2022-11-15T04:07:19.558Z,12.50
2022-11-15T04:10:05.035Z,6.70
2022-11-15T04:12:37.536Z,15.83
2022-11-15T04:15:10.441Z,12.63
2022-11-15T04:17:49.002Z,11.20
2022-11-15T04:20:44.006Z,7.33
2022-11-15T04:23:31.388Z,19.83
2022-11-15T04:26:01.917Z,11.37
2022-11-15T04:28:29.762Z,10.77
2022-11-15T04:30:57.052Z,11.20
2022-11-15T04:33:24.237Z,13.13
2022-11-15T04:36:10.301Z,11.67
2022-11-15T04:38:38.080Z,10.40
2022-11-15T04:41:05.380Z,10.87
2022-11-15T04:43:32.836Z,11.33
2022-11-15T04:46:00.152Z,15.53
2022-11-15T04:48:27.280Z,13.73
2022-11-15T04:50:54.446Z,12.23
2022-11-15T04:53:21.659Z,15.43
2022-11-15T04:55:48.814Z,12.67
2022-11-15T04:58:15.960Z,11.30
2022-11-15T05:00:43.198Z,16.10
2022-11-15T05:03:30.290Z,13.87
2022-11-15T05:05:59.594Z,16.27
2022-11-15T05:08:26.987Z,12.47
2022-11-15T05:10:54.149Z,18.50
2022-11-15T05:13:21.969Z,12.40
2022-11-15T05:15:49.108Z,10.77
2022-11-15T05:18:22.149Z,11.57
2022-11-15T05:20:50.575Z,12.43
2022-11-15T05:23:17.786Z,13.07
2022-11-15T05:25:44.955Z,10.17
2022-11-15T05:28:12.146Z,11.50
2022-11-15T05:30:39.361Z,9.10
2022-11-15T05:33:06.515Z,10.53
2022-11-15T05:35:40.994Z,10.90
2022-11-15T05:38:08.621Z,9.57
2022-11-15T05:40:36.351Z,10.93
2022-11-15T05:43:05.725Z,10.07
2022-11-15T05:45:35.071Z,11.57
2022-11-15T05:48:08.531Z,9.87
2022-11-15T05:50:38.920Z,13.70
2022-11-15T05:53:07.070Z,14.33
2022-11-15T05:55:34.670Z,12.07
2022-11-15T05:58:02.298Z,17.47
2022-11-15T06:00:29.867Z,12.40
2022-11-15T06:02:56.988Z,10.40
2022-11-15T06:05:24.168Z,10.87
2022-11-15T06:07:51.515Z,6.30
2022-11-15T06:10:18.785Z,13.00
2022-11-15T06:12:45.957Z,13.57
2022-11-15T06:15:13.116Z,14.83
2022-11-15T06:17:40.251Z,15.63
2022-11-15T06:20:07.822Z,14.20
2022-11-15T06:22:35.008Z,18.30
2022-11-15T06:25:05.397Z,16.77
2022-11-15T06:27:32.903Z,17.27
2022-11-15T06:30:00.060Z,9.27
2022-11-15T06:32:27.477Z,15.50
2022-11-15T06:34:54.624Z,16.63
2022-11-15T06:37:21.768Z,16.17
2022-11-15T06:39:48.929Z,16.50
2022-11-15T06:42:16.053Z,15.20
2022-11-15T06:44:43.418Z,15.60
2022-11-15T06:47:10.758Z,12.70
2022-11-15T06:49:37.892Z,19.43
2022-11-15T06:52:05.210Z,16.27
2022-11-15T06:54:32.461Z,14.87
2022-11-15T06:56:59.590Z,16.67
2022-11-15T06:59:26.738Z,14.50
2022-11-15T07:01:53.851Z,20.27
2022-11-15T07:04:21.071Z,12.63
2022-11-15T07:06:49.263Z,17.03
2022-11-15T07:09:16.508Z,17.17
2022-11-15T07:11:43.687Z,19.53
2022-11-15T07:14:10.840Z,17.47
2022-11-15T07:16:38.431Z,15.63
2022-11-15T07:19:05.625Z,12.73
2022-11-15T07:21:33.868Z,14.43
2022-11-15T07:24:00.969Z,12.47
2022-11-15T07:26:28.129Z,14.10
2022-11-15T07:28:55.652Z,13.07
2022-11-15T07:31:23.447Z,11.63
2022-11-15T07:33:50.584Z,12.67
2022-11-15T07:36:18.077Z,11.33
2022-11-15T07:38:45.302Z,14.80
2022-11-15T07:41:12.529Z,14.13
2022-11-15T07:43:39.804Z,16.03
2022-11-15T07:46:10.247Z,13.63
2022-11-15T07:48:44.378Z,13.07
2022-11-15T07:51:15.930Z,18.20
2022-11-15T07:53:44.005Z,14.57
2022-11-15T07:56:11.836Z,22.93
2022-11-15T07:58:39.178Z,20.47
2022-11-15T08:01:07.868Z,18.67
2022-11-15T08:03:35.841Z,15.47
2022-11-15T08:06:03.817Z,16.83
2022-11-15T08:08:30.955Z,12.40
2022-11-15T08:11:01.587Z,13.60
2022-11-15T08:13:29.311Z,17.03
2022-11-15T08:16:01.292Z,15.30
2022-11-15T08:18:28.433Z,15.27
2022-11-15T08:21:00.761Z,18.30
2022-11-15T08:23:28.710Z,16.03
2022-11-15T08:26:01.847Z,13.13
2022-11-15T08:28:29.143Z,16.23
2022-11-15T08:30:56.347Z,13.83
2022-11-15T08:33:23.711Z,12.33
2022-11-15T08:35:50.918Z,12.27
2022-11-15T08:38:18.049Z,11.53
2022-11-15T08:40:45.238Z,13.70
2022-11-15T08:43:12.367Z,11.83
2022-11-15T08:45:39.624Z,15.80
2022-11-15T08:48:06.899Z,10.43
2022-11-15T08:50:34.038Z,14.53
2022-11-15T08:53:09.346Z,15.07
2022-11-15T08:55:40.507Z,10.83
2022-11-15T08:58:08.032Z,11.60
2022-11-15T09:00:35.353Z,15.37
2022-11-15T09:03:06.084Z,12.67
2022-11-15T09:05:33.556Z,16.30
2022-11-15T09:08:00.858Z,12.73
2022-11-15T09:10:31.281Z,15.07
2022-11-15T09:12:58.900Z,14.43
2022-11-15T09:15:26.192Z,10.53
2022-11-15T09:17:53.321Z,8.90
2022-11-15T09:20:20.479Z,12.80
2022-11-15T09:22:47.659Z,12.77
2022-11-15T09:25:14.795Z,11.10
2022-11-15T09:27:42.018Z,12.80
2022-11-15T09:30:09.575Z,9.80
2022-11-15T09:32:39.480Z,10.00
2022-11-15T09:35:07.032Z,9.23
2022-11-15T09:37:34.227Z,6.90
2022-11-15T09:40:01.759Z,6.73
2022-11-15T09:43:04.058Z,8.53
2022-11-15T09:46:06.164Z,8.47
2022-11-15T09:49:01.271Z,7.23
2022-11-15T09:51:37.262Z,10.97
2022-11-15T09:54:45.589Z,8.50
2022-11-15T09:57:15.731Z,10.03
2022-11-15T09:59:48.436Z,7.55
2022-11-15T10:02:43.226Z,7.77
2022-11-15T10:05:15.251Z,9.98
2022-11-15T10:07:52.206Z,6.23
2022-11-15T10:10:25.400Z,6.97
2022-11-15T10:12:53.842Z,8.13
2022-11-15T10:15:24.925Z,7.50
2022-11-15T10:18:07.536Z,8.40
2022-11-15T10:20:47.092Z,10.45
2022-11-15T10:23:17.206Z,7.68
2022-11-15T10:25:44.836Z,10.60
2022-11-15T10:28:26.765Z,7.23
2022-11-15T10:30:56.774Z,6.37
2022-11-15T10:33:38.225Z,6.00
2022-11-15T10:36:14.201Z,5.30
2022-11-15T10:38:50.651Z,6.60
2022-11-15T10:41:22.546Z,7.00
2022-11-15T10:44:07.780Z,6.18
2022-11-15T10:46:51.933Z,8.35
2022-11-15T10:49:23.123Z,9.65
2022-11-15T10:52:03.933Z,8.10
2022-11-15T10:54:34.475Z,7.45
2022-11-15T10:57:26.488Z,6.80
2022-11-15T10:59:57.316Z,7.32
2022-11-15T11:02:46.579Z,8.90
2022-11-15T11:05:41.351Z,8.60
2022-11-15T11:08:15.590Z,7.03
2022-11-15T11:11:00.046Z,7.80
2022-11-15T11:13:37.517Z,7.38
2022-11-15T11:16:25.903Z,6.72
2022-11-15T11:19:17.792Z,6.47
2022-11-15T11:22:03.282Z,6.15
2022-11-15T11:24:41.653Z,8.73
2022-11-15T11:27:43.078Z,7.32
2022-11-15T11:30:39.466Z,7.65
2022-11-15T11:33:24.661Z,8.55
2022-11-15T11:36:09.974Z,6.93
2022-11-15T11:38:54.895Z,8.10
2022-11-15T11:41:48.823Z,6.80
2022-11-15T11:44:24.002Z,5.50
2022-11-15T11:47:22.150Z,7.25
2022-11-15T11:49:57.145Z,5.38
2022-11-15T11:52:31.372Z,7.03
2022-11-15T11:55:22.774Z,5.05
2022-11-15T11:57:54.517Z,5.70
2022-11-15T12:00:23.727Z,5.95
2022-11-15T12:03:24.791Z,8.90
2022-11-15T12:05:57.592Z,8.80
2022-11-15T12:08:48.599Z,7.03
2022-11-15T12:11:24.983Z,7.00
2022-11-15T12:13:59.162Z,5.72
2022-11-15T12:16:32.188Z,4.68
2022-11-15T12:19:04.347Z,5.55
2022-11-15T12:21:53.998Z,4.80
2022-11-15T12:24:50.124Z,4.55
2022-11-15T12:27:33.668Z,7.38
2022-11-15T12:30:12.669Z,5.75
2022-11-15T12:32:42.074Z,5.75
2022-11-15T12:35:27.495Z,5.00
2022-11-15T12:37:57.555Z,4.60
2022-11-15T12:40:34.236Z,8.13
2022-11-15T12:43:16.532Z,8.30
2022-11-15T12:45:47.457Z,6.53
2022-11-15T12:48:17.516Z,5.55
2022-11-15T12:50:56.479Z,11.02
2022-11-15T12:53:31.137Z,7.07
2022-11-15T12:56:04.251Z,7.95
2022-11-15T12:58:52.290Z,4.72
2022-11-15T13:01:34.940Z,6.20
2022-11-15T13:04:20.566Z,5.72
2022-11-15T13:06:57.974Z,6.47
2022-11-15T13:09:37.165Z,7.07
2022-11-15T13:12:09.323Z,4.03
2022-11-15T13:14:45.265Z,4.13
2022-11-15T13:17:21.192Z,7.85
2022-11-15T13:19:53.890Z,3.60
2022-11-15T13:22:39.709Z,4.30
2022-11-15T13:25:34.243Z,5.75
2022-11-15T13:28:07.623Z,3.53
2022-11-15T13:30:36.972Z,8.05
2022-11-15T13:33:21.550Z,6.78
2022-11-15T13:35:56.625Z,4.13
2022-11-15T13:38:28.080Z,4.13
2022-11-15T13:40:56.413Z,4.75
2022-11-15T13:43:28.565Z,5.30
2022-11-15T13:46:10.936Z,6.72
2022-11-15T13:48:38.682Z,4.00
2022-11-15T13:51:20.338Z,6.78
2022-11-15T13:54:23.370Z,8.57
2022-11-15T13:56:56.728Z,6.90
2022-11-15T13:59:27.077Z,5.45
2022-11-15T14:01:56.899Z,6.40
2022-11-15T14:04:26.426Z,6.38
2022-11-15T14:06:57.722Z,5.57
2022-11-15T14:09:32.141Z,6.45
2022-11-15T14:12:00.357Z,5.13
2022-11-15T14:14:29.365Z,5.20
2022-11-15T14:17:01.322Z,6.55
2022-11-15T14:19:28.467Z,7.05
2022-11-15T14:22:13.534Z,6.50
2022-11-15T14:24:41.702Z,6.60
2022-11-15T14:27:19.359Z,6.88
2022-11-15T14:29:47.299Z,8.73
2022-11-15T14:32:18.225Z,7.43
2022-11-15T14:34:45.694Z,5.63
2022-11-15T14:37:35.484Z,7.38
2022-11-15T14:40:05.055Z,6.00
2022-11-15T14:42:32.713Z,7.97
2022-11-15T14:45:00.037Z,7.45
2022-11-15T14:47:27.244Z,6.95
2022-11-15T14:49:54.399Z,7.65
2022-11-15T14:52:32.929Z,6.32
2022-11-15T14:55:03.126Z,6.90
2022-11-15T14:57:31.240Z,7.70
2022-11-15T14:59:58.389Z,8.70
2022-11-15T15:02:27.991Z,7.38
2022-11-15T15:04:55.204Z,6.10
2022-11-15T15:07:23.167Z,5.07
2022-11-15T15:09:50.581Z,7.20
2022-11-15T15:12:24.246Z,8.07
2022-11-15T15:14:51.841Z,9.77
2022-11-15T15:17:19.161Z,9.48
2022-11-15T15:19:46.774Z,6.45
2022-11-15T15:22:18.823Z,8.20
2022-11-15T15:24:47.138Z,7.85
2022-11-15T15:27:14.381Z,8.02
2022-11-15T15:29:41.976Z,7.05
2022-11-15T15:32:09.805Z,5.72
2022-11-15T15:34:36.967Z,8.00
2022-11-15T15:37:26.783Z,8.35
2022-11-15T15:39:57.754Z,8.85
2022-11-15T15:42:25.146Z,10.05
2022-11-15T15:44:52.544Z,13.00
2022-11-15T15:47:24.494Z,9.13
2022-11-15T15:49:51.920Z,7.30
2022-11-15T15:52:19.161Z,9.73
2022-11-15T15:54:46.268Z,9.63
2022-11-15T15:57:15.115Z,12.27
2022-11-15T15:59:43.043Z,17.63
2022-11-15T16:02:13.062Z,22.88
2022-11-15T16:04:40.650Z,23.25
2022-11-15T16:07:18.520Z,19.27
2022-11-15T16:10:01.218Z,28.70
2022-11-15T16:12:29.307Z,30.60
2022-11-15T16:14:56.577Z,30.55
2022-11-15T16:17:31.398Z,32.35
2022-11-15T16:20:01.373Z,21.30
2022-11-15T16:22:30.074Z,12.75
2022-11-15T16:24:57.725Z,11.43
2022-11-15T16:27:25.155Z,12.00
2022-11-15T16:29:52.444Z,9.75
2022-11-15T16:32:19.683Z,14.15
2022-11-15T16:34:49.171Z,9.98
2022-11-15T16:37:23.661Z,11.77
2022-11-15T16:39:51.360Z,11.30
2022-11-15T16:42:18.583Z,17.27
2022-11-15T16:44:45.835Z,13.52
2022-11-15T16:47:22.945Z,11.07
2022-11-15T16:49:50.594Z,10.88
2022-11-15T16:52:21.387Z,13.02
2022-11-15T16:54:49.117Z,12.70
2022-11-15T16:57:16.636Z,9.98
2022-11-15T16:59:43.779Z,8.43
2022-11-15T17:02:15.063Z,9.10
2022-11-15T17:04:42.165Z,17.10
2022-11-15T17:07:09.620Z,23.83
2022-11-15T17:09:36.816Z,17.65
2022-11-15T17:12:04.284Z,19.55
2022-11-15T17:14:31.428Z,19.35
2022-11-15T17:16:58.611Z,23.98
2022-11-15T17:19:25.771Z,18.35
2022-11-15T17:21:53.846Z,19.92
2022-11-15T17:24:21.273Z,19.60
2022-11-15T17:26:48.546Z,15.15
2022-11-15T17:29:15.673Z,14.05
2022-11-15T17:31:42.972Z,15.52
2022-11-15T17:34:10.188Z,21.35
2022-11-15T17:36:37.396Z,19.10
2022-11-15T17:39:05.317Z,22.10
2022-11-15T17:41:32.668Z,17.05
2022-11-15T17:44:00.604Z,13.35
2022-11-15T17:46:28.426Z,13.20
2022-11-15T17:48:57.094Z,13.60
2022-11-15T17:51:24.388Z,12.43
2022-11-15T17:53:51.871Z,11.93
2022-11-15T17:56:20.960Z,18.60
2022-11-15T17:58:53.821Z,16.33
2022-11-15T18:01:28.582Z,15.98
2022-11-15T18:03:56.849Z,15.73
2022-11-15T18:06:24.946Z,15.00
2022-11-15T18:08:56.068Z,17.83
2022-11-15T18:11:28.685Z,20.15
2022-11-15T18:14:01.226Z,13.65
2022-11-15T18:16:31.081Z,15.65
2022-11-15T18:18:59.103Z,14.10
2022-11-15T18:21:31.125Z,14.70
2022-11-15T18:24:00.156Z,16.65
2022-11-15T18:26:30.072Z,17.60
2022-11-15T18:29:03.058Z,15.43
2022-11-15T18:31:31.510Z,17.38
2022-11-15T18:34:00.065Z,17.92
2022-11-15T18:36:29.592Z,17.40
2022-11-15T18:38:58.756Z,24.17
2022-11-15T18:41:28.826Z,30.00
2022-11-15T18:43:57.895Z,21.58
2022-11-15T18:46:27.348Z,21.07
2022-11-15T18:48:55.670Z,22.20
2022-11-15T18:51:25.748Z,21.17
2022-11-15T18:53:54.636Z,17.45
2022-11-15T18:56:23.223Z,25.73
2022-11-15T18:58:52.514Z,27.60
2022-11-15T19:01:25.097Z,23.48
2022-11-15T19:03:54.783Z,20.58
2022-11-15T19:06:24.404Z,19.83
2022-11-15T19:08:53.198Z,17.90
2022-11-15T19:11:24.164Z,19.87
2022-11-15T19:14:11.847Z,17.35
2022-11-15T19:16:50.087Z,13.35
2022-11-15T19:19:20.071Z,20.95
2022-11-15T19:21:47.915Z,17.55
2022-11-15T19:24:15.513Z,16.20
2022-11-15T19:26:42.990Z,19.05
2022-11-15T19:29:10.799Z,18.88
2022-11-15T19:31:38.485Z,18.23
2022-11-15T19:34:06.785Z,16.33
2022-11-15T19:36:42.045Z,20.10
2022-11-15T19:39:17.873Z,24.10
2022-11-15T19:41:45.588Z,27.20
2022-11-15T19:44:13.254Z,19.47
2022-11-15T19:46:41.065Z,22.83
2022-11-15T19:49:10.805Z,28.50
2022-11-15T19:51:41.408Z,27.40
2022-11-15T19:54:09.802Z,24.37
2022-11-15T19:56:37.493Z,24.37
2022-11-15T19:59:05.477Z,24.67
2022-11-15T20:01:36.313Z,18.70
2022-11-15T20:04:04.323Z,19.40
2022-11-15T20:06:37.919Z,14.63
2022-11-15T20:09:05.312Z,16.97
2022-11-15T20:11:34.076Z,15.82
2022-11-15T20:14:04.990Z,18.15
2022-11-15T20:16:32.213Z,15.82
2022-11-15T20:18:59.567Z,14.88
2022-11-15T20:21:26.775Z,14.93
2022-11-15T20:23:53.998Z,19.08
2022-11-15T20:26:21.852Z,14.05
2022-11-15T20:28:49.507Z,16.90
2022-11-15T20:31:17.436Z,15.55
2022-11-15T20:33:44.923Z,19.60
2022-11-15T20:36:14.445Z,17.30
2022-11-15T20:38:42.097Z,21.23
2022-11-15T20:41:14.542Z,16.00
2022-11-15T20:43:43.640Z,17.30
2022-11-15T20:46:12.532Z,19.57
2022-11-15T20:48:40.244Z,20.13
2022-11-15T20:51:14.381Z,19.63
2022-11-15T20:53:43.074Z,21.20
2022-11-15T20:56:13.529Z,21.73
2022-11-15T20:58:41.859Z,19.20
2022-11-15T21:01:11.586Z,22.02
2022-11-15T21:03:38.886Z,17.00
2022-11-15T21:06:06.492Z,14.07
2022-11-15T21:08:53.691Z,13.68
2022-11-15T21:11:39.602Z,14.00
2022-11-15T21:14:09.645Z,16.93
2022-11-15T21:16:38.006Z,16.60
2022-11-15T21:19:06.123Z,16.53
2022-11-15T21:21:33.790Z,16.00
2022-11-15T21:24:03.923Z,21.63
2022-11-15T21:26:31.237Z,14.47
2022-11-15T21:28:58.573Z,17.67
2022-11-15T21:31:25.724Z,21.40
2022-11-15T21:33:53.020Z,18.45
2022-11-15T21:36:20.204Z,21.97
2022-11-15T21:38:47.401Z,16.10
2022-11-15T21:41:14.536Z,20.10
2022-11-15T21:43:41.695Z,18.03
2022-11-15T21:46:09.693Z,17.33
2022-11-15T21:48:37.197Z,18.30
2022-11-15T21:51:06.655Z,17.97
2022-11-15T21:53:34.376Z,13.60
2022-11-15T21:56:02.327Z,18.40
2022-11-15T21:58:30.051Z,19.85
